sensor_id;sensor_type;location;lat;lon;timestamp;P1;durP1;ratioP1;P2;durP2;ratioP2
11616;SDS011;5864;52.998;9.068;2023-03-01T00:00:21;5.40;;;3.45;;
11616;SDS011;5864;52.998;9.068;2023-03-01T00:03:06;4.90;;;3.30;;
11616;SDS011;5864;52.998;9.068;2023-03-01T00:05:53;6.07;;;3.25;;
11616;SDS011;5864;52.998;9.068;2023-03-01T00:08:39;5.28;;;3.30;;
11616;SDS011;5864;52.998;9.068;2023-03-01T00:11:25;5.68;;;3.60;;
11616;SDS011;5864;52.998;9.068;2023-03-01T00:14:12;5.75;;;3.40;;
11616;SDS011;5864;52.998;9.068;2023-03-01T00:17:00;7.13;;;3.33;;
11616;SDS011;5864;52.998;9.068;2023-03-01T00:19:45;4.40;;;2.97;;
11616;SDS011;5864;52.998;9.068;2023-03-01T00:22:33;5.13;;;2.97;;
11616;SDS011;5864;52.998;9.068;2023-03-01T00:25:18;4.10;;;2.90;;
11616;SDS011;5864;52.998;9.068;2023-03-01T00:28:04;5.07;;;2.80;;
11616;SDS011;5864;52.998;9.068;2023-03-01T00:30:50;4.97;;;2.60;;
11616;SDS011;5864;52.998;9.068;2023-03-01T00:33:35;4.30;;;2.77;;
11616;SDS011;5864;52.998;9.068;2023-03-01T00:36:21;7.03;;;3.03;;
11616;SDS011;5864;52.998;9.068;2023-03-01T00:39:09;3.20;;;2.58;;
11616;SDS011;5864;52.998;9.068;2023-03-01T00:41:57;3.67;;;2.47;;
11616;SDS011;5864;52.998;9.068;2023-03-01T00:44:42;3.40;;;2.40;;
11616;SDS011;5864;52.998;9.068;2023-03-01T00:47:28;3.55;;;2.80;;
11616;SDS011;5864;52.998;9.068;2023-03-01T00:50:13;2.95;;;2.58;;
11616;SDS011;5864;52.998;9.068;2023-03-01T00:52:59;4.87;;;2.73;;
11616;SDS011;5864;52.998;9.068;2023-03-01T00:55:46;3.42;;;2.60;;
11616;SDS011;5864;52.998;9.068;2023-03-01T00:58:32;3.03;;;2.33;;
11616;SDS011;5864;52.998;9.068;2023-03-01T01:01:19;4.60;;;2.57;;
11616;SDS011;5864;52.998;9.068;2023-03-01T01:04:07;3.17;;;2.50;;
11616;SDS011;5864;52.998;9.068;2023-03-01T01:06:54;3.67;;;2.50;;
11616;SDS011;5864;52.998;9.068;2023-03-01T01:09:40;4.22;;;2.55;;
11616;SDS011;5864;52.998;9.068;2023-03-01T01:12:27;3.75;;;2.85;;
11616;SDS011;5864;52.998;9.068;2023-03-01T01:15:13;4.80;;;2.10;;
11616;SDS011;5864;52.998;9.068;2023-03-01T01:18:00;3.00;;;2.47;;
11616;SDS011;5864;52.998;9.068;2023-03-01T01:20:45;5.38;;;2.80;;
11616;SDS011;5864;52.998;9.068;2023-03-01T01:23:31;4.05;;;2.53;;
11616;SDS011;5864;52.998;9.068;2023-03-01T01:26:18;3.30;;;2.40;;
11616;SDS011;5864;52.998;9.068;2023-03-01T01:29:07;2.90;;;2.60;;
11616;SDS011;5864;52.998;9.068;2023-03-01T01:31:53;4.10;;;2.40;;
11616;SDS011;5864;52.998;9.068;2023-03-01T01:34:39;4.63;;;2.43;;
11616;SDS011;5864;52.998;9.068;2023-03-01T01:37:25;3.75;;;2.33;;
11616;SDS011;5864;52.998;9.068;2023-03-01T01:40:14;3.88;;;2.03;;
11616;SDS011;5864;52.998;9.068;2023-03-01T01:43:00;3.05;;;2.20;;
11616;SDS011;5864;52.998;9.068;2023-03-01T01:45:47;2.72;;;2.03;;
11616;SDS011;5864;52.998;9.068;2023-03-01T01:48:37;3.58;;;2.20;;
11616;SDS011;5864;52.998;9.068;2023-03-01T01:51:27;2.83;;;2.10;;
11616;SDS011;5864;52.998;9.068;2023-03-01T01:54:22;3.95;;;2.28;;
11616;SDS011;5864;52.998;9.068;2023-03-01T01:57:14;3.03;;;2.30;;
11616;SDS011;5864;52.998;9.068;2023-03-01T02:00:04;4.53;;;2.60;;
11616;SDS011;5864;52.998;9.068;2023-03-01T02:02:55;2.92;;;2.35;;
11616;SDS011;5864;52.998;9.068;2023-03-01T02:05:45;4.53;;;2.50;;
11616;SDS011;5864;52.998;9.068;2023-03-01T02:08:35;3.45;;;2.13;;
11616;SDS011;5864;52.998;9.068;2023-03-01T02:11:23;3.15;;;2.10;;
11616;SDS011;5864;52.998;9.068;2023-03-01T02:14:09;4.32;;;2.08;;
11616;SDS011;5864;52.998;9.068;2023-03-01T02:16:55;3.55;;;2.28;;
11616;SDS011;5864;52.998;9.068;2023-03-01T02:19:46;3.97;;;2.20;;
11616;SDS011;5864;52.998;9.068;2023-03-01T02:22:43;4.10;;;2.60;;
11616;SDS011;5864;52.998;9.068;2023-03-01T02:25:35;3.53;;;2.55;;
11616;SDS011;5864;52.998;9.068;2023-03-01T02:28:27;2.75;;;2.47;;
11616;SDS011;5864;52.998;9.068;2023-03-01T02:31:16;3.67;;;2.75;;
11616;SDS011;5864;52.998;9.068;2023-03-01T02:34:21;3.85;;;2.30;;
11616;SDS011;5864;52.998;9.068;2023-03-01T02:37:13;3.33;;;2.72;;
11616;SDS011;5864;52.998;9.068;2023-03-01T02:40:06;3.78;;;2.40;;
11616;SDS011;5864;52.998;9.068;2023-03-01T02:42:57;3.75;;;2.55;;
11616;SDS011;5864;52.998;9.068;2023-03-01T02:45:49;4.03;;;2.50;;
11616;SDS011;5864;52.998;9.068;2023-03-01T02:48:40;4.28;;;2.45;;
11616;SDS011;5864;52.998;9.068;2023-03-01T02:51:31;3.88;;;3.05;;
11616;SDS011;5864;52.998;9.068;2023-03-01T02:54:27;4.07;;;2.70;;
11616;SDS011;5864;52.998;9.068;2023-03-01T02:57:16;3.80;;;3.08;;
11616;SDS011;5864;52.998;9.068;2023-03-01T03:00:04;4.47;;;3.10;;
11616;SDS011;5864;52.998;9.068;2023-03-01T03:02:53;3.75;;;2.65;;
11616;SDS011;5864;52.998;9.068;2023-03-01T03:05:40;4.80;;;3.22;;
11616;SDS011;5864;52.998;9.068;2023-03-01T03:08:26;4.05;;;3.28;;
11616;SDS011;5864;52.998;9.068;2023-03-01T03:11:12;4.22;;;3.03;;
11616;SDS011;5864;52.998;9.068;2023-03-01T03:13:57;3.58;;;2.78;;
11616;SDS011;5864;52.998;9.068;2023-03-01T03:16:44;4.78;;;2.80;;
11616;SDS011;5864;52.998;9.068;2023-03-01T03:19:32;5.07;;;3.50;;
11616;SDS011;5864;52.998;9.068;2023-03-01T03:22:17;5.18;;;3.47;;
11616;SDS011;5864;52.998;9.068;2023-03-01T03:25:03;5.63;;;3.53;;
11616;SDS011;5864;52.998;9.068;2023-03-01T03:27:49;5.25;;;3.70;;
11616;SDS011;5864;52.998;9.068;2023-03-01T03:30:40;6.25;;;3.92;;
11616;SDS011;5864;52.998;9.068;2023-03-01T03:33:26;7.25;;;4.10;;
11616;SDS011;5864;52.998;9.068;2023-03-01T03:36:16;5.10;;;3.63;;
11616;SDS011;5864;52.998;9.068;2023-03-01T03:39:02;5.80;;;3.75;;
11616;SDS011;5864;52.998;9.068;2023-03-01T03:41:48;5.10;;;3.85;;
11616;SDS011;5864;52.998;9.068;2023-03-01T03:44:34;4.78;;;3.75;;
11616;SDS011;5864;52.998;9.068;2023-03-01T03:47:21;6.13;;;3.97;;
11616;SDS011;5864;52.998;9.068;2023-03-01T03:50:07;7.57;;;4.30;;
11616;SDS011;5864;52.998;9.068;2023-03-01T03:52:56;5.38;;;4.00;;
11616;SDS011;5864;52.998;9.068;2023-03-01T03:55:41;7.10;;;4.05;;
11616;SDS011;5864;52.998;9.068;2023-03-01T03:58:28;5.40;;;3.83;;
11616;SDS011;5864;52.998;9.068;2023-03-01T04:01:13;5.57;;;4.20;;
11616;SDS011;5864;52.998;9.068;2023-03-01T04:03:59;6.13;;;4.03;;
11616;SDS011;5864;52.998;9.068;2023-03-01T04:06:47;5.65;;;4.00;;
11616;SDS011;5864;52.998;9.068;2023-03-01T04:09:35;5.80;;;4.03;;
11616;SDS011;5864;52.998;9.068;2023-03-01T04:12:20;5.75;;;3.70;;
11616;SDS011;5864;52.998;9.068;2023-03-01T04:15:07;5.20;;;3.75;;
11616;SDS011;5864;52.998;9.068;2023-03-01T04:17:57;6.68;;;4.28;;
11616;SDS011;5864;52.998;9.068;2023-03-01T04:20:43;4.63;;;3.88;;
11616;SDS011;5864;52.998;9.068;2023-03-01T04:23:29;8.15;;;4.28;;
11616;SDS011;5864;52.998;9.068;2023-03-01T04:26:16;8.00;;;3.30;;
11616;SDS011;5864;52.998;9.068;2023-03-01T04:29:01;6.07;;;3.55;;
11616;SDS011;5864;52.998;9.068;2023-03-01T04:31:47;7.20;;;3.88;;
11616;SDS011;5864;52.998;9.068;2023-03-01T04:34:33;5.30;;;3.53;;
11616;SDS011;5864;52.998;9.068;2023-03-01T04:37:19;5.13;;;3.40;;
11616;SDS011;5864;52.998;9.068;2023-03-01T04:40:05;6.80;;;3.80;;
11616;SDS011;5864;52.998;9.068;2023-03-01T04:43:01;6.13;;;3.55;;
11616;SDS011;5864;52.998;9.068;2023-03-01T04:45:47;8.00;;;3.65;;
11616;SDS011;5864;52.998;9.068;2023-03-01T04:48:34;4.43;;;3.53;;
11616;SDS011;5864;52.998;9.068;2023-03-01T04:51:20;6.57;;;3.80;;
11616;SDS011;5864;52.998;9.068;2023-03-01T04:54:06;8.20;;;3.95;;
11616;SDS011;5864;52.998;9.068;2023-03-01T04:56:52;4.82;;;3.88;;
11616;SDS011;5864;52.998;9.068;2023-03-01T04:59:40;4.72;;;3.60;;
11616;SDS011;5864;52.998;9.068;2023-03-01T05:02:25;4.90;;;3.53;;
11616;SDS011;5864;52.998;9.068;2023-03-01T05:05:11;4.47;;;3.13;;
11616;SDS011;5864;52.998;9.068;2023-03-01T05:07:57;4.63;;;3.60;;
11616;SDS011;5864;52.998;9.068;2023-03-01T05:10:44;4.32;;;3.10;;
11616;SDS011;5864;52.998;9.068;2023-03-01T05:13:30;4.93;;;3.28;;
11616;SDS011;5864;52.998;9.068;2023-03-01T05:16:18;5.90;;;3.65;;
11616;SDS011;5864;52.998;9.068;2023-03-01T05:19:04;3.97;;;2.92;;
11616;SDS011;5864;52.998;9.068;2023-03-01T05:21:55;4.38;;;3.53;;
11616;SDS011;5864;52.998;9.068;2023-03-01T05:24:47;6.40;;;3.58;;
11616;SDS011;5864;52.998;9.068;2023-03-01T05:27:33;6.20;;;3.45;;
11616;SDS011;5864;52.998;9.068;2023-03-01T05:30:19;6.07;;;3.72;;
11616;SDS011;5864;52.998;9.068;2023-03-01T05:33:07;6.50;;;3.80;;
11616;SDS011;5864;52.998;9.068;2023-03-01T05:35:59;6.78;;;3.75;;
11616;SDS011;5864;52.998;9.068;2023-03-01T05:38:44;4.38;;;3.40;;
11616;SDS011;5864;52.998;9.068;2023-03-01T05:41:30;5.30;;;3.40;;
11616;SDS011;5864;52.998;9.068;2023-03-01T05:44:15;4.32;;;3.65;;
11616;SDS011;5864;52.998;9.068;2023-03-01T05:47:01;5.03;;;3.53;;
11616;SDS011;5864;52.998;9.068;2023-03-01T05:49:48;5.35;;;3.55;;
11616;SDS011;5864;52.998;9.068;2023-03-01T05:52:34;5.35;;;3.25;;
11616;SDS011;5864;52.998;9.068;2023-03-01T05:55:20;6.35;;;3.45;;
11616;SDS011;5864;52.998;9.068;2023-03-01T05:58:07;5.85;;;3.58;;
11616;SDS011;5864;52.998;9.068;2023-03-01T06:00:55;5.50;;;3.20;;
11616;SDS011;5864;52.998;9.068;2023-03-01T06:03:40;5.47;;;3.67;;
11616;SDS011;5864;52.998;9.068;2023-03-01T06:06:27;6.45;;;3.50;;
11616;SDS011;5864;52.998;9.068;2023-03-01T06:09:13;4.72;;;3.22;;
11616;SDS011;5864;52.998;9.068;2023-03-01T06:11:59;5.45;;;3.50;;
11616;SDS011;5864;52.998;9.068;2023-03-01T06:14:45;5.38;;;3.15;;
11616;SDS011;5864;52.998;9.068;2023-03-01T06:17:32;7.25;;;3.50;;
11616;SDS011;5864;52.998;9.068;2023-03-01T06:20:21;6.53;;;3.20;;
11616;SDS011;5864;52.998;9.068;2023-03-01T06:23:10;4.88;;;3.40;;
11616;SDS011;5864;52.998;9.068;2023-03-01T06:25:55;6.45;;;3.40;;
11616;SDS011;5864;52.998;9.068;2023-03-01T06:28:40;5.85;;;3.50;;
11616;SDS011;5864;52.998;9.068;2023-03-01T06:31:26;6.10;;;3.33;;
11616;SDS011;5864;52.998;9.068;2023-03-01T06:34:12;8.23;;;4.40;;
11616;SDS011;5864;52.998;9.068;2023-03-01T06:36:57;8.52;;;4.75;;
11616;SDS011;5864;52.998;9.068;2023-03-01T06:39:44;7.13;;;4.05;;
11616;SDS011;5864;52.998;9.068;2023-03-01T06:42:30;7.38;;;4.22;;
11616;SDS011;5864;52.998;9.068;2023-03-01T06:45:16;8.52;;;4.95;;
11616;SDS011;5864;52.998;9.068;2023-03-01T06:48:03;7.97;;;5.30;;
11616;SDS011;5864;52.998;9.068;2023-03-01T06:50:48;6.70;;;5.15;;
11616;SDS011;5864;52.998;9.068;2023-03-01T06:53:34;7.60;;;4.70;;
11616;SDS011;5864;52.998;9.068;2023-03-01T06:56:21;9.02;;;5.38;;
11616;SDS011;5864;52.998;9.068;2023-03-01T06:59:07;8.40;;;4.85;;
11616;SDS011;5864;52.998;9.068;2023-03-01T07:01:53;13.55;;;5.10;;
11616;SDS011;5864;52.998;9.068;2023-03-01T07:04:39;7.05;;;4.85;;
11616;SDS011;5864;52.998;9.068;2023-03-01T07:07:25;8.48;;;4.70;;
11616;SDS011;5864;52.998;9.068;2023-03-01T07:10:11;9.88;;;4.82;;
11616;SDS011;5864;52.998;9.068;2023-03-01T07:12:58;8.55;;;5.60;;
11616;SDS011;5864;52.998;9.068;2023-03-01T07:15:44;8.43;;;5.10;;
11616;SDS011;5864;52.998;9.068;2023-03-01T07:18:30;7.30;;;5.15;;
11616;SDS011;5864;52.998;9.068;2023-03-01T07:21:15;7.63;;;4.85;;
11616;SDS011;5864;52.998;9.068;2023-03-01T07:24:01;9.77;;;5.60;;
11616;SDS011;5864;52.998;9.068;2023-03-01T07:26:48;6.82;;;4.97;;
11616;SDS011;5864;52.998;9.068;2023-03-01T07:29:36;7.63;;;4.40;;
11616;SDS011;5864;52.998;9.068;2023-03-01T07:32:21;6.83;;;4.73;;
11616;SDS011;5864;52.998;9.068;2023-03-01T07:35:07;6.40;;;4.50;;
11616;SDS011;5864;52.998;9.068;2023-03-01T07:37:53;5.60;;;4.23;;
11616;SDS011;5864;52.998;9.068;2023-03-01T07:40:39;8.77;;;4.63;;
11616;SDS011;5864;52.998;9.068;2023-03-01T07:43:24;6.30;;;4.30;;
11616;SDS011;5864;52.998;9.068;2023-03-01T07:46:11;6.87;;;4.47;;
11616;SDS011;5864;52.998;9.068;2023-03-01T07:48:57;6.63;;;4.23;;
11616;SDS011;5864;52.998;9.068;2023-03-01T07:51:42;5.53;;;4.03;;
11616;SDS011;5864;52.998;9.068;2023-03-01T07:54:28;7.00;;;4.43;;
11616;SDS011;5864;52.998;9.068;2023-03-01T07:57:14;5.20;;;4.30;;
11616;SDS011;5864;52.998;9.068;2023-03-01T07:59:59;5.37;;;4.43;;
11616;SDS011;5864;52.998;9.068;2023-03-01T08:02:46;7.43;;;4.60;;
11616;SDS011;5864;52.998;9.068;2023-03-01T08:05:32;5.37;;;4.70;;
11616;SDS011;5864;52.998;9.068;2023-03-01T08:08:17;7.80;;;4.10;;
11616;SDS011;5864;52.998;9.068;2023-03-01T08:11:03;5.70;;;4.30;;
11616;SDS011;5864;52.998;9.068;2023-03-01T08:13:50;5.43;;;4.37;;
11616;SDS011;5864;52.998;9.068;2023-03-01T08:16:35;6.50;;;4.53;;
11616;SDS011;5864;52.998;9.068;2023-03-01T08:19:22;5.30;;;4.53;;
11616;SDS011;5864;52.998;9.068;2023-03-01T08:22:08;6.07;;;4.37;;
11616;SDS011;5864;52.998;9.068;2023-03-01T08:24:54;4.93;;;4.20;;
11616;SDS011;5864;52.998;9.068;2023-03-01T08:27:40;8.30;;;4.40;;
11616;SDS011;5864;52.998;9.068;2023-03-01T08:30:25;5.50;;;4.60;;
11616;SDS011;5864;52.998;9.068;2023-03-01T08:33:11;5.57;;;4.57;;
11616;SDS011;5864;52.998;9.068;2023-03-01T08:36:05;5.53;;;4.20;;
11616;SDS011;5864;52.998;9.068;2023-03-01T08:38:51;6.17;;;4.53;;
11616;SDS011;5864;52.998;9.068;2023-03-01T08:41:37;6.17;;;4.90;;
11616;SDS011;5864;52.998;9.068;2023-03-01T08:44:24;6.07;;;4.23;;
11616;SDS011;5864;52.998;9.068;2023-03-01T08:47:09;6.23;;;4.30;;
11616;SDS011;5864;52.998;9.068;2023-03-01T08:49:55;8.03;;;4.33;;
11616;SDS011;5864;52.998;9.068;2023-03-01T08:52:41;6.13;;;4.80;;
11616;SDS011;5864;52.998;9.068;2023-03-01T08:55:27;5.83;;;4.40;;
11616;SDS011;5864;52.998;9.068;2023-03-01T08:58:13;5.13;;;4.57;;
11616;SDS011;5864;52.998;9.068;2023-03-01T09:00:59;7.10;;;5.40;;
11616;SDS011;5864;52.998;9.068;2023-03-01T09:03:45;5.90;;;4.70;;
11616;SDS011;5864;52.998;9.068;2023-03-01T09:06:30;7.27;;;4.93;;
11616;SDS011;5864;52.998;9.068;2023-03-01T09:09:18;8.33;;;4.50;;
11616;SDS011;5864;52.998;9.068;2023-03-01T09:12:04;6.30;;;4.40;;
11616;SDS011;5864;52.998;9.068;2023-03-01T09:14:50;6.97;;;4.47;;
11616;SDS011;5864;52.998;9.068;2023-03-01T09:17:36;5.50;;;4.20;;
11616;SDS011;5864;52.998;9.068;2023-03-01T09:20:22;6.13;;;4.60;;
11616;SDS011;5864;52.998;9.068;2023-03-01T09:23:08;6.10;;;4.23;;
11616;SDS011;5864;52.998;9.068;2023-03-01T09:25:54;7.03;;;4.53;;
11616;SDS011;5864;52.998;9.068;2023-03-01T09:28:40;7.70;;;4.77;;
11616;SDS011;5864;52.998;9.068;2023-03-01T09:31:26;6.37;;;4.37;;
11616;SDS011;5864;52.998;9.068;2023-03-01T09:34:11;4.40;;;4.00;;
11616;SDS011;5864;52.998;9.068;2023-03-01T09:36:59;7.43;;;4.43;;
11616;SDS011;5864;52.998;9.068;2023-03-01T09:39:45;6.37;;;4.70;;
11616;SDS011;5864;52.998;9.068;2023-03-01T09:42:33;6.80;;;4.80;;
11616;SDS011;5864;52.998;9.068;2023-03-01T09:45:23;5.80;;;4.50;;
11616;SDS011;5864;52.998;9.068;2023-03-01T09:48:15;6.03;;;4.73;;
11616;SDS011;5864;52.998;9.068;2023-03-01T09:51:06;6.20;;;3.30;;
11616;SDS011;5864;52.998;9.068;2023-03-01T09:53:57;3.63;;;2.73;;
11616;SDS011;5864;52.998;9.068;2023-03-01T09:56:46;2.97;;;2.53;;
11616;SDS011;5864;52.998;9.068;2023-03-01T09:59:45;3.60;;;2.30;;
11616;SDS011;5864;52.998;9.068;2023-03-01T10:02:39;3.30;;;2.40;;
11616;SDS011;5864;52.998;9.068;2023-03-01T10:05:31;6.33;;;3.60;;
11616;SDS011;5864;52.998;9.068;2023-03-01T10:08:31;5.43;;;3.73;;
11616;SDS011;5864;52.998;9.068;2023-03-01T10:11:22;5.40;;;3.47;;
11616;SDS011;5864;52.998;9.068;2023-03-01T10:14:13;4.83;;;3.10;;
11616;SDS011;5864;52.998;9.068;2023-03-01T10:17:12;6.27;;;3.33;;
11616;SDS011;5864;52.998;9.068;2023-03-01T10:20:10;5.50;;;3.60;;
11616;SDS011;5864;52.998;9.068;2023-03-01T10:23:01;5.60;;;4.27;;
11616;SDS011;5864;52.998;9.068;2023-03-01T10:25:48;7.53;;;5.13;;
11616;SDS011;5864;52.998;9.068;2023-03-01T10:28:50;8.77;;;4.97;;
11616;SDS011;5864;52.998;9.068;2023-03-01T10:31:44;6.03;;;4.60;;
11616;SDS011;5864;52.998;9.068;2023-03-01T10:34:35;5.20;;;4.33;;
11616;SDS011;5864;52.998;9.068;2023-03-01T10:37:21;4.63;;;3.70;;
11616;SDS011;5864;52.998;9.068;2023-03-01T10:40:08;8.13;;;5.97;;
11616;SDS011;5864;52.998;9.068;2023-03-01T10:42:57;10.43;;;6.67;;
11616;SDS011;5864;52.998;9.068;2023-03-01T10:45:44;7.43;;;5.20;;
11616;SDS011;5864;52.998;9.068;2023-03-01T10:48:31;10.43;;;5.80;;
11616;SDS011;5864;52.998;9.068;2023-03-01T10:51:18;10.33;;;8.27;;
11616;SDS011;5864;52.998;9.068;2023-03-01T10:54:04;11.70;;;7.20;;
11616;SDS011;5864;52.998;9.068;2023-03-01T10:57:00;6.93;;;5.43;;
11616;SDS011;5864;52.998;9.068;2023-03-01T10:59:47;9.00;;;6.27;;
11616;SDS011;5864;52.998;9.068;2023-03-01T11:02:47;8.57;;;5.60;;
11616;SDS011;5864;52.998;9.068;2023-03-01T11:05:34;7.97;;;5.83;;
11616;SDS011;5864;52.998;9.068;2023-03-01T11:08:31;7.70;;;5.43;;
11616;SDS011;5864;52.998;9.068;2023-03-01T11:11:29;7.87;;;5.33;;
11616;SDS011;5864;52.998;9.068;2023-03-01T11:14:16;10.37;;;6.27;;
11616;SDS011;5864;52.998;9.068;2023-03-01T11:17:04;9.70;;;5.93;;
11616;SDS011;5864;52.998;9.068;2023-03-01T11:20:01;8.30;;;5.37;;
11616;SDS011;5864;52.998;9.068;2023-03-01T11:22:54;8.20;;;5.87;;
11616;SDS011;5864;52.998;9.068;2023-03-01T11:25:44;9.17;;;7.53;;
11616;SDS011;5864;52.998;9.068;2023-03-01T11:28:33;8.67;;;6.67;;
11616;SDS011;5864;52.998;9.068;2023-03-01T11:31:24;8.77;;;6.27;;
11616;SDS011;5864;52.998;9.068;2023-03-01T11:34:12;8.87;;;6.07;;
11616;SDS011;5864;52.998;9.068;2023-03-01T11:37:03;10.20;;;6.87;;
11616;SDS011;5864;52.998;9.068;2023-03-01T11:40:03;9.90;;;5.83;;
11616;SDS011;5864;52.998;9.068;2023-03-01T11:42:59;7.87;;;6.33;;
11616;SDS011;5864;52.998;9.068;2023-03-01T11:45:54;13.23;;;8.10;;
11616;SDS011;5864;52.998;9.068;2023-03-01T11:48:58;8.43;;;6.20;;
11616;SDS011;5864;52.998;9.068;2023-03-01T11:52:03;8.27;;;6.50;;
11616;SDS011;5864;52.998;9.068;2023-03-01T11:55:07;10.37;;;7.40;;
11616;SDS011;5864;52.998;9.068;2023-03-01T11:58:11;9.23;;;6.87;;
11616;SDS011;5864;52.998;9.068;2023-03-01T12:01:09;8.97;;;7.50;;
11616;SDS011;5864;52.998;9.068;2023-03-01T12:04:13;9.43;;;6.77;;
11616;SDS011;5864;52.998;9.068;2023-03-01T12:07:27;9.33;;;6.83;;
11616;SDS011;5864;52.998;9.068;2023-03-01T12:10:22;9.60;;;6.33;;
11616;SDS011;5864;52.998;9.068;2023-03-01T12:13:16;8.27;;;7.10;;
11616;SDS011;5864;52.998;9.068;2023-03-01T12:16:27;8.83;;;6.87;;
11616;SDS011;5864;52.998;9.068;2023-03-01T12:19:32;8.50;;;6.70;;
11616;SDS011;5864;52.998;9.068;2023-03-01T12:22:29;12.07;;;7.90;;
11616;SDS011;5864;52.998;9.068;2023-03-01T12:25:16;9.40;;;6.73;;
11616;SDS011;5864;52.998;9.068;2023-03-01T12:28:24;8.47;;;6.07;;
11616;SDS011;5864;52.998;9.068;2023-03-01T12:31:38;7.50;;;6.40;;
11616;SDS011;5864;52.998;9.068;2023-03-01T12:34:56;8.60;;;6.60;;
11616;SDS011;5864;52.998;9.068;2023-03-01T12:37:58;8.13;;;6.23;;
11616;SDS011;5864;52.998;9.068;2023-03-01T12:41:01;9.93;;;6.30;;
11616;SDS011;5864;52.998;9.068;2023-03-01T12:44:04;7.00;;;6.20;;
11616;SDS011;5864;52.998;9.068;2023-03-01T12:47:01;8.77;;;5.93;;
11616;SDS011;5864;52.998;9.068;2023-03-01T12:50:00;11.83;;;6.40;;
11616;SDS011;5864;52.998;9.068;2023-03-01T12:52:49;10.00;;;6.77;;
11616;SDS011;5864;52.998;9.068;2023-03-01T12:55:38;7.93;;;6.60;;
11616;SDS011;5864;52.998;9.068;2023-03-01T12:58:28;8.00;;;6.10;;
11616;SDS011;5864;52.998;9.068;2023-03-01T13:01:21;9.23;;;7.13;;
11616;SDS011;5864;52.998;9.068;2023-03-01T13:04:14;9.37;;;6.87;;
11616;SDS011;5864;52.998;9.068;2023-03-01T13:10:19;8.50;;;6.40;;
11616;SDS011;5864;52.998;9.068;2023-03-01T13:13:12;8.50;;;6.10;;
11616;SDS011;5864;52.998;9.068;2023-03-01T13:16:19;8.30;;;7.20;;
11616;SDS011;5864;52.998;9.068;2023-03-01T13:19:24;10.57;;;7.77;;
11616;SDS011;5864;52.998;9.068;2023-03-01T13:22:25;12.50;;;8.93;;
11616;SDS011;5864;52.998;9.068;2023-03-01T13:25:15;11.83;;;7.97;;
11616;SDS011;5864;52.998;9.068;2023-03-01T13:34:52;11.50;;;8.03;;
11616;SDS011;5864;52.998;9.068;2023-03-01T13:37:39;9.10;;;6.73;;
11616;SDS011;5864;52.998;9.068;2023-03-01T13:43:44;9.03;;;7.40;;
11616;SDS011;5864;52.998;9.068;2023-03-01T13:46:32;8.40;;;6.80;;
11616;SDS011;5864;52.998;9.068;2023-03-01T13:49:21;11.77;;;8.70;;
11616;SDS011;5864;52.998;9.068;2023-03-01T13:52:15;9.27;;;6.57;;
11616;SDS011;5864;52.998;9.068;2023-03-01T13:55:18;8.50;;;6.73;;
11616;SDS011;5864;52.998;9.068;2023-03-01T13:58:14;10.13;;;7.07;;
11616;SDS011;5864;52.998;9.068;2023-03-01T14:01:03;9.47;;;6.40;;
11616;SDS011;5864;52.998;9.068;2023-03-01T14:03:50;8.43;;;6.17;;
11616;SDS011;5864;52.998;9.068;2023-03-01T14:06:37;7.83;;;5.90;;
11616;SDS011;5864;52.998;9.068;2023-03-01T14:09:23;10.93;;;6.77;;
11616;SDS011;5864;52.998;9.068;2023-03-01T14:12:15;8.63;;;5.93;;
11616;SDS011;5864;52.998;9.068;2023-03-01T14:15:14;8.87;;;5.73;;
11616;SDS011;5864;52.998;9.068;2023-03-01T14:18:04;7.87;;;6.03;;
11616;SDS011;5864;52.998;9.068;2023-03-01T14:20:53;7.80;;;5.87;;
11616;SDS011;5864;52.998;9.068;2023-03-01T14:23:41;8.80;;;6.23;;
11616;SDS011;5864;52.998;9.068;2023-03-01T14:26:26;9.37;;;6.33;;
11616;SDS011;5864;52.998;9.068;2023-03-01T14:29:32;7.60;;;5.63;;
11616;SDS011;5864;52.998;9.068;2023-03-01T14:32:20;9.47;;;7.10;;
11616;SDS011;5864;52.998;9.068;2023-03-01T14:35:19;7.63;;;6.00;;
11616;SDS011;5864;52.998;9.068;2023-03-01T14:38:19;8.77;;;6.10;;
11616;SDS011;5864;52.998;9.068;2023-03-01T14:41:07;8.57;;;5.77;;
11616;SDS011;5864;52.998;9.068;2023-03-01T14:43:55;8.17;;;5.73;;
11616;SDS011;5864;52.998;9.068;2023-03-01T14:46:43;10.57;;;6.50;;
11616;SDS011;5864;52.998;9.068;2023-03-01T14:49:30;8.13;;;6.37;;
11616;SDS011;5864;52.998;9.068;2023-03-01T14:52:17;9.80;;;6.77;;
11616;SDS011;5864;52.998;9.068;2023-03-01T14:55:07;8.20;;;6.03;;
11616;SDS011;5864;52.998;9.068;2023-03-01T14:58:02;12.00;;;8.03;;
11616;SDS011;5864;52.998;9.068;2023-03-01T15:00:50;8.73;;;6.33;;
11616;SDS011;5864;52.998;9.068;2023-03-01T15:03:38;10.23;;;7.23;;
11616;SDS011;5864;52.998;9.068;2023-03-01T15:06:27;8.50;;;5.50;;
11616;SDS011;5864;52.998;9.068;2023-03-01T15:09:13;7.07;;;5.87;;
11616;SDS011;5864;52.998;9.068;2023-03-01T15:12:00;10.83;;;6.30;;
11616;SDS011;5864;52.998;9.068;2023-03-01T15:15:30;10.80;;;7.67;;
11616;SDS011;5864;52.998;9.068;2023-03-01T15:18:21;8.40;;;6.20;;
11616;SDS011;5864;52.998;9.068;2023-03-01T15:21:15;7.27;;;5.80;;
11616;SDS011;5864;52.998;9.068;2023-03-01T15:24:03;8.50;;;6.13;;
11616;SDS011;5864;52.998;9.068;2023-03-01T15:26:55;9.07;;;6.53;;
11616;SDS011;5864;52.998;9.068;2023-03-01T15:29:50;8.23;;;6.43;;
11616;SDS011;5864;52.998;9.068;2023-03-01T15:32:39;7.97;;;6.60;;
11616;SDS011;5864;52.998;9.068;2023-03-01T15:35:33;6.93;;;5.33;;
11616;SDS011;5864;52.998;9.068;2023-03-01T15:38:32;8.33;;;6.87;;
11616;SDS011;5864;52.998;9.068;2023-03-01T15:41:23;9.43;;;7.37;;
11616;SDS011;5864;52.998;9.068;2023-03-01T15:44:17;11.60;;;8.73;;
11616;SDS011;5864;52.998;9.068;2023-03-01T15:47:21;10.50;;;8.17;;
11616;SDS011;5864;52.998;9.068;2023-03-01T15:50:15;13.07;;;9.43;;
11616;SDS011;5864;52.998;9.068;2023-03-01T15:53:05;11.67;;;9.77;;
11616;SDS011;5864;52.998;9.068;2023-03-01T15:55:54;12.33;;;9.10;;
11616;SDS011;5864;52.998;9.068;2023-03-01T15:58:40;11.63;;;8.50;;
11616;SDS011;5864;52.998;9.068;2023-03-01T16:01:26;12.50;;;9.37;;
11616;SDS011;5864;52.998;9.068;2023-03-01T16:04:13;13.40;;;9.47;;
11616;SDS011;5864;52.998;9.068;2023-03-01T16:07:05;13.13;;;9.70;;
11616;SDS011;5864;52.998;9.068;2023-03-01T16:09:51;12.07;;;9.27;;
11616;SDS011;5864;52.998;9.068;2023-03-01T16:12:37;12.40;;;9.20;;
11616;SDS011;5864;52.998;9.068;2023-03-01T16:15:24;12.60;;;8.47;;
11616;SDS011;5864;52.998;9.068;2023-03-01T16:18:11;12.57;;;8.93;;
11616;SDS011;5864;52.998;9.068;2023-03-01T16:20:57;14.73;;;10.00;;
11616;SDS011;5864;52.998;9.068;2023-03-01T16:23:45;13.43;;;9.00;;
11616;SDS011;5864;52.998;9.068;2023-03-01T16:26:31;14.57;;;9.00;;
11616;SDS011;5864;52.998;9.068;2023-03-01T16:29:17;12.13;;;9.40;;
11616;SDS011;5864;52.998;9.068;2023-03-01T16:32:02;12.03;;;8.43;;
11616;SDS011;5864;52.998;9.068;2023-03-01T16:34:48;11.73;;;8.80;;
11616;SDS011;5864;52.998;9.068;2023-03-01T16:37:34;14.03;;;9.20;;
11616;SDS011;5864;52.998;9.068;2023-03-01T16:40:22;10.93;;;8.83;;
11616;SDS011;5864;52.998;9.068;2023-03-01T16:43:09;13.77;;;9.23;;
11616;SDS011;5864;52.998;9.068;2023-03-01T16:45:55;11.83;;;9.20;;
11616;SDS011;5864;52.998;9.068;2023-03-01T16:48:40;13.73;;;9.70;;
11616;SDS011;5864;52.998;9.068;2023-03-01T16:51:26;14.43;;;9.87;;
11616;SDS011;5864;52.998;9.068;2023-03-01T16:54:13;17.63;;;9.87;;
11616;SDS011;5864;52.998;9.068;2023-03-01T16:57:00;12.87;;;9.23;;
11616;SDS011;5864;52.998;9.068;2023-03-01T16:59:45;13.70;;;9.57;;
11616;SDS011;5864;52.998;9.068;2023-03-01T17:02:31;16.57;;;10.17;;
11616;SDS011;5864;52.998;9.068;2023-03-01T17:05:17;14.00;;;9.83;;
11616;SDS011;5864;52.998;9.068;2023-03-01T17:08:04;14.60;;;9.77;;
11616;SDS011;5864;52.998;9.068;2023-03-01T17:10:50;16.17;;;10.87;;
11616;SDS011;5864;52.998;9.068;2023-03-01T17:13:38;14.00;;;9.60;;
11616;SDS011;5864;52.998;9.068;2023-03-01T17:16:24;15.90;;;10.70;;
11616;SDS011;5864;52.998;9.068;2023-03-01T17:19:10;16.83;;;10.60;;
11616;SDS011;5864;52.998;9.068;2023-03-01T17:22:01;15.87;;;10.60;;
11616;SDS011;5864;52.998;9.068;2023-03-01T17:24:46;14.27;;;10.03;;